sensor_id;sensor_type;location;lat;lon;timestamp;P1;durP1;ratioP1;P2;durP2;ratioP2
1414;SDS011;702;49.466;11.086;2023-02-15T00:00:11;41.20;;;20.40;;
1414;SDS011;702;49.466;11.086;2023-02-15T00:02:40;37.43;;;18.40;;
1414;SDS011;702;49.466;11.086;2023-02-15T00:05:07;40.47;;;18.73;;
1414;SDS011;702;49.466;11.086;2023-02-15T00:07:36;39.93;;;19.33;;
1414;SDS011;702;49.466;11.086;2023-02-15T00:10:05;37.23;;;21.60;;
1414;SDS011;702;49.466;11.086;2023-02-15T00:12:34;38.60;;;20.50;;
1414;SDS011;702;49.466;11.086;2023-02-15T00:15:03;38.53;;;21.17;;
1414;SDS011;702;49.466;11.086;2023-02-15T00:17:32;39.23;;;19.30;;
1414;SDS011;702;49.466;11.086;2023-02-15T00:20:00;37.37;;;19.97;;
1414;SDS011;702;49.466;11.086;2023-02-15T00:22:27;35.67;;;19.93;;
1414;SDS011;702;49.466;11.086;2023-02-15T00:24:56;31.63;;;17.57;;
1414;SDS011;702;49.466;11.086;2023-02-15T00:27:24;31.57;;;17.67;;
1414;SDS011;702;49.466;11.086;2023-02-15T00:29:51;38.10;;;18.40;;
1414;SDS011;702;49.466;11.086;2023-02-15T00:32:19;33.73;;;18.70;;
1414;SDS011;702;49.466;11.086;2023-02-15T00:34:47;28.30;;;17.77;;
1414;SDS011;702;49.466;11.086;2023-02-15T00:37:15;31.77;;;20.40;;
1414;SDS011;702;49.466;11.086;2023-02-15T00:39:45;37.90;;;21.20;;
1414;SDS011;702;49.466;11.086;2023-02-15T00:42:15;33.40;;;18.50;;
1414;SDS011;702;49.466;11.086;2023-02-15T00:44:43;36.20;;;19.63;;
1414;SDS011;702;49.466;11.086;2023-02-15T00:47:11;38.10;;;18.33;;
1414;SDS011;702;49.466;11.086;2023-02-15T00:49:38;36.23;;;19.00;;
1414;SDS011;702;49.466;11.086;2023-02-15T00:52:06;32.30;;;18.50;;
1414;SDS011;702;49.466;11.086;2023-02-15T00:54:36;28.53;;;16.90;;
1414;SDS011;702;49.466;11.086;2023-02-15T00:57:04;31.40;;;18.47;;
1414;SDS011;702;49.466;11.086;2023-02-15T00:59:33;31.30;;;17.87;;
1414;SDS011;702;49.466;11.086;2023-02-15T01:02:02;29.37;;;17.23;;
1414;SDS011;702;49.466;11.086;2023-02-15T01:04:29;35.20;;;19.53;;
1414;SDS011;702;49.466;11.086;2023-02-15T01:06:58;33.17;;;18.57;;
1414;SDS011;702;49.466;11.086;2023-02-15T01:09:27;40.33;;;19.00;;
1414;SDS011;702;49.466;11.086;2023-02-15T01:11:57;30.33;;;17.70;;
1414;SDS011;702;49.466;11.086;2023-02-15T01:14:25;33.10;;;18.60;;
1414;SDS011;702;49.466;11.086;2023-02-15T01:16:57;31.57;;;15.20;;
1414;SDS011;702;49.466;11.086;2023-02-15T01:19:25;33.70;;;18.47;;
1414;SDS011;702;49.466;11.086;2023-02-15T01:21:57;37.20;;;18.27;;
1414;SDS011;702;49.466;11.086;2023-02-15T01:24:24;34.63;;;17.77;;
1414;SDS011;702;49.466;11.086;2023-02-15T01:26:52;35.47;;;18.97;;
1414;SDS011;702;49.466;11.086;2023-02-15T01:29:20;38.40;;;19.80;;
1414;SDS011;702;49.466;11.086;2023-02-15T01:31:48;30.50;;;16.57;;
1414;SDS011;702;49.466;11.086;2023-02-15T01:34:17;29.53;;;18.27;;
1414;SDS011;702;49.466;11.086;2023-02-15T01:36:50;31.00;;;17.20;;
1414;SDS011;702;49.466;11.086;2023-02-15T01:39:18;32.07;;;18.67;;
1414;SDS011;702;49.466;11.086;2023-02-15T01:41:49;32.47;;;18.20;;
1414;SDS011;702;49.466;11.086;2023-02-15T01:47:15;32.87;;;19.33;;
1414;SDS011;702;49.466;11.086;2023-02-15T01:49:52;33.60;;;17.70;;
1414;SDS011;702;49.466;11.086;2023-02-15T01:52:37;33.20;;;17.53;;
1414;SDS011;702;49.466;11.086;2023-02-15T01:55:13;34.70;;;19.13;;
1414;SDS011;702;49.466;11.086;2023-02-15T01:57:41;34.40;;;19.73;;
1414;SDS011;702;49.466;11.086;2023-02-15T02:00:14;29.60;;;18.07;;
1414;SDS011;702;49.466;11.086;2023-02-15T02:02:43;31.93;;;18.77;;
1414;SDS011;702;49.466;11.086;2023-02-15T02:05:15;31.77;;;19.70;;
1414;SDS011;702;49.466;11.086;2023-02-15T02:08:03;31.50;;;16.53;;
1414;SDS011;702;49.466;11.086;2023-02-15T02:10:31;34.33;;;17.07;;
1414;SDS011;702;49.466;11.086;2023-02-15T02:13:04;32.03;;;17.40;;
1414;SDS011;702;49.466;11.086;2023-02-15T02:15:38;31.97;;;17.77;;
1414;SDS011;702;49.466;11.086;2023-02-15T02:18:19;31.13;;;17.60;;
1414;SDS011;702;49.466;11.086;2023-02-15T02:24:14;30.30;;;16.67;;
1414;SDS011;702;49.466;11.086;2023-02-15T02:30:10;32.93;;;17.47;;
1414;SDS011;702;49.466;11.086;2023-02-15T02:33:14;30.60;;;16.77;;
1414;SDS011;702;49.466;11.086;2023-02-15T02:36:03;30.97;;;17.70;;
1414;SDS011;702;49.466;11.086;2023-02-15T02:38:58;30.00;;;16.90;;
1414;SDS011;702;49.466;11.086;2023-02-15T02:41:44;28.30;;;16.77;;
1414;SDS011;702;49.466;11.086;2023-02-15T02:44:23;30.37;;;17.03;;
1414;SDS011;702;49.466;11.086;2023-02-15T02:46:58;30.37;;;18.10;;
1414;SDS011;702;49.466;11.086;2023-02-15T02:49:33;30.27;;;16.03;;
1414;SDS011;702;49.466;11.086;2023-02-15T02:52:04;27.50;;;15.70;;
1414;SDS011;702;49.466;11.086;2023-02-15T02:54:55;29.73;;;16.77;;
1414;SDS011;702;49.466;11.086;2023-02-15T02:57:22;35.83;;;19.20;;
1414;SDS011;702;49.466;11.086;2023-02-15T02:59:53;38.83;;;18.80;;
1414;SDS011;702;49.466;11.086;2023-02-15T03:02:27;30.13;;;16.53;;
1414;SDS011;702;49.466;11.086;2023-02-15T03:05:01;31.17;;;17.17;;
1414;SDS011;702;49.466;11.086;2023-02-15T03:07:34;36.93;;;18.63;;
1414;SDS011;702;49.466;11.086;2023-02-15T03:10:04;39.30;;;18.40;;
1414;SDS011;702;49.466;11.086;2023-02-15T03:12:34;36.47;;;19.90;;
1414;SDS011;702;49.466;11.086;2023-02-15T03:15:04;38.10;;;18.10;;
1414;SDS011;702;49.466;11.086;2023-02-15T03:17:38;39.50;;;19.67;;
1414;SDS011;702;49.466;11.086;2023-02-15T03:20:25;43.23;;;19.63;;
1414;SDS011;702;49.466;11.086;2023-02-15T03:23:03;42.03;;;20.07;;
1414;SDS011;702;49.466;11.086;2023-02-15T03:25:37;40.80;;;19.53;;
1414;SDS011;702;49.466;11.086;2023-02-15T03:28:08;34.30;;;18.83;;
1414;SDS011;702;49.466;11.086;2023-02-15T03:30:41;32.13;;;17.90;;
1414;SDS011;702;49.466;11.086;2023-02-15T03:33:12;36.90;;;19.60;;
1414;SDS011;702;49.466;11.086;2023-02-15T03:35:44;30.13;;;17.00;;
1414;SDS011;702;49.466;11.086;2023-02-15T03:38:28;31.37;;;17.63;;
1414;SDS011;702;49.466;11.086;2023-02-15T03:41:03;29.17;;;17.53;;
1414;SDS011;702;49.466;11.086;2023-02-15T03:43:38;36.97;;;18.47;;
1414;SDS011;702;49.466;11.086;2023-02-15T03:46:13;30.30;;;16.40;;
1414;SDS011;702;49.466;11.086;2023-02-15T03:48:49;25.97;;;16.73;;
1414;SDS011;702;49.466;11.086;2023-02-15T03:51:23;29.93;;;16.47;;
1414;SDS011;702;49.466;11.086;2023-02-15T03:54:03;28.90;;;17.40;;
1414;SDS011;702;49.466;11.086;2023-02-15T03:56:35;26.83;;;15.83;;
1414;SDS011;702;49.466;11.086;2023-02-15T03:59:06;26.27;;;16.33;;
1414;SDS011;702;49.466;11.086;2023-02-15T04:01:54;27.67;;;15.17;;
1414;SDS011;702;49.466;11.086;2023-02-15T04:04:36;27.03;;;14.87;;
1414;SDS011;702;49.466;11.086;2023-02-15T04:07:08;28.03;;;15.50;;
1414;SDS011;702;49.466;11.086;2023-02-15T04:09:37;26.83;;;14.97;;
1414;SDS011;702;49.466;11.086;2023-02-15T04:12:23;25.33;;;14.63;;
1414;SDS011;702;49.466;11.086;2023-02-15T04:14:50;26.90;;;16.10;;
1414;SDS011;702;49.466;11.086;2023-02-15T04:17:35;22.43;;;13.77;;
1414;SDS011;702;49.466;11.086;2023-02-15T04:20:03;21.87;;;13.80;;
1414;SDS011;702;49.466;11.086;2023-02-15T04:22:51;25.20;;;14.27;;
1414;SDS011;702;49.466;11.086;2023-02-15T04:25:36;24.50;;;13.17;;
1414;SDS011;702;49.466;11.086;2023-02-15T04:28:04;23.20;;;13.23;;
1414;SDS011;702;49.466;11.086;2023-02-15T04:30:35;22.53;;;14.50;;
1414;SDS011;702;49.466;11.086;2023-02-15T04:33:03;25.73;;;15.07;;
1414;SDS011;702;49.466;11.086;2023-02-15T04:35:31;25.40;;;14.03;;
1414;SDS011;702;49.466;11.086;2023-02-15T04:38:02;23.40;;;13.67;;
1414;SDS011;702;49.466;11.086;2023-02-15T04:40:29;22.03;;;13.47;;
1414;SDS011;702;49.466;11.086;2023-02-15T04:42:57;24.33;;;13.60;;
1414;SDS011;702;49.466;11.086;2023-02-15T04:45:25;25.30;;;13.63;;
1414;SDS011;702;49.466;11.086;2023-02-15T04:47:53;25.57;;;15.20;;
1414;SDS011;702;49.466;11.086;2023-02-15T04:50:21;26.83;;;15.23;;
1414;SDS011;702;49.466;11.086;2023-02-15T04:52:50;21.53;;;14.53;;
1414;SDS011;702;49.466;11.086;2023-02-15T04:55:19;23.40;;;15.20;;
1414;SDS011;702;49.466;11.086;2023-02-15T04:57:51;25.77;;;15.47;;
1414;SDS011;702;49.466;11.086;2023-02-15T05:00:20;23.60;;;15.53;;
1414;SDS011;702;49.466;11.086;2023-02-15T05:02:50;23.50;;;14.97;;
1414;SDS011;702;49.466;11.086;2023-02-15T05:05:18;24.30;;;15.00;;
1414;SDS011;702;49.466;11.086;2023-02-15T05:07:46;24.60;;;15.90;;
1414;SDS011;702;49.466;11.086;2023-02-15T05:10:14;28.23;;;16.37;;
1414;SDS011;702;49.466;11.086;2023-02-15T05:12:44;24.50;;;16.03;;
1414;SDS011;702;49.466;11.086;2023-02-15T05:15:15;26.77;;;16.53;;
1414;SDS011;702;49.466;11.086;2023-02-15T05:17:57;28.40;;;16.80;;
1414;SDS011;702;49.466;11.086;2023-02-15T05:20:25;24.20;;;15.83;;
1414;SDS011;702;49.466;11.086;2023-02-15T05:22:53;27.73;;;16.60;;
1414;SDS011;702;49.466;11.086;2023-02-15T05:25:21;24.90;;;15.77;;
1414;SDS011;702;49.466;11.086;2023-02-15T05:28:09;24.30;;;15.03;;
1414;SDS011;702;49.466;11.086;2023-02-15T05:30:48;28.73;;;17.70;;
1414;SDS011;702;49.466;11.086;2023-02-15T05:33:17;27.70;;;16.33;;
1414;SDS011;702;49.466;11.086;2023-02-15T05:35:45;27.87;;;17.00;;
1414;SDS011;702;49.466;11.086;2023-02-15T05:38:13;28.80;;;16.67;;
1414;SDS011;702;49.466;11.086;2023-02-15T05:40:40;28.97;;;17.23;;
1414;SDS011;702;49.466;11.086;2023-02-15T05:43:10;24.57;;;15.90;;
1414;SDS011;702;49.466;11.086;2023-02-15T05:45:37;28.07;;;18.57;;
1414;SDS011;702;49.466;11.086;2023-02-15T05:48:05;30.20;;;17.87;;
1414;SDS011;702;49.466;11.086;2023-02-15T05:50:32;27.53;;;16.17;;
1414;SDS011;702;49.466;11.086;2023-02-15T05:52:59;25.43;;;15.70;;
1414;SDS011;702;49.466;11.086;2023-02-15T05:55:26;28.47;;;16.77;;
1414;SDS011;702;49.466;11.086;2023-02-15T05:57:54;31.10;;;16.50;;
1414;SDS011;702;49.466;11.086;2023-02-15T06:00:23;28.90;;;17.13;;
1414;SDS011;702;49.466;11.086;2023-02-15T06:02:51;34.23;;;19.60;;
1414;SDS011;702;49.466;11.086;2023-02-15T06:05:18;31.30;;;18.20;;
1414;SDS011;702;49.466;11.086;2023-02-15T06:07:45;31.43;;;18.30;;
1414;SDS011;702;49.466;11.086;2023-02-15T06:10:13;27.83;;;17.03;;
1414;SDS011;702;49.466;11.086;2023-02-15T06:12:40;32.60;;;17.13;;
1414;SDS011;702;49.466;11.086;2023-02-15T06:15:08;28.87;;;17.40;;
1414;SDS011;702;49.466;11.086;2023-02-15T06:17:36;27.33;;;17.27;;
1414;SDS011;702;49.466;11.086;2023-02-15T06:20:04;30.03;;;16.37;;
1414;SDS011;702;49.466;11.086;2023-02-15T06:22:33;33.10;;;19.90;;
1414;SDS011;702;49.466;11.086;2023-02-15T06:25:00;27.73;;;16.97;;
1414;SDS011;702;49.466;11.086;2023-02-15T06:27:28;35.97;;;18.93;;
1414;SDS011;702;49.466;11.086;2023-02-15T06:29:56;28.87;;;17.53;;
1414;SDS011;702;49.466;11.086;2023-02-15T06:32:23;26.03;;;15.33;;
1414;SDS011;702;49.466;11.086;2023-02-15T06:34:51;28.10;;;16.30;;
1414;SDS011;702;49.466;11.086;2023-02-15T06:37:19;26.17;;;15.03;;
1414;SDS011;702;49.466;11.086;2023-02-15T06:39:46;25.27;;;16.20;;
1414;SDS011;702;49.466;11.086;2023-02-15T06:42:14;25.63;;;16.07;;
1414;SDS011;702;49.466;11.086;2023-02-15T06:44:43;25.73;;;15.37;;
1414;SDS011;702;49.466;11.086;2023-02-15T06:47:10;26.37;;;15.87;;
1414;SDS011;702;49.466;11.086;2023-02-15T06:49:38;22.80;;;14.97;;
1414;SDS011;702;49.466;11.086;2023-02-15T06:52:06;27.70;;;15.63;;
1414;SDS011;702;49.466;11.086;2023-02-15T06:54:34;27.93;;;17.00;;
1414;SDS011;702;49.466;11.086;2023-02-15T06:57:01;33.30;;;16.80;;
1414;SDS011;702;49.466;11.086;2023-02-15T06:59:28;27.03;;;16.63;;
1414;SDS011;702;49.466;11.086;2023-02-15T07:01:55;30.00;;;16.93;;
1414;SDS011;702;49.466;11.086;2023-02-15T07:04:23;27.80;;;16.87;;
1414;SDS011;702;49.466;11.086;2023-02-15T07:06:52;26.90;;;14.80;;
1414;SDS011;702;49.466;11.086;2023-02-15T07:09:21;24.30;;;15.30;;
1414;SDS011;702;49.466;11.086;2023-02-15T07:11:48;27.97;;;18.80;;
1414;SDS011;702;49.466;11.086;2023-02-15T07:14:33;28.70;;;15.43;;
1414;SDS011;702;49.466;11.086;2023-02-15T07:17:01;27.80;;;15.63;;
1414;SDS011;702;49.466;11.086;2023-02-15T07:19:28;25.83;;;15.43;;
1414;SDS011;702;49.466;11.086;2023-02-15T07:21:55;24.73;;;15.13;;
1414;SDS011;702;49.466;11.086;2023-02-15T07:24:24;25.07;;;14.40;;
1414;SDS011;702;49.466;11.086;2023-02-15T07:26:51;24.20;;;14.30;;
1414;SDS011;702;49.466;11.086;2023-02-15T07:29:19;24.40;;;15.50;;
1414;SDS011;702;49.466;11.086;2023-02-15T07:31:46;27.10;;;15.70;;
1414;SDS011;702;49.466;11.086;2023-02-15T07:34:13;26.10;;;14.60;;
1414;SDS011;702;49.466;11.086;2023-02-15T07:36:41;24.40;;;15.37;;
1414;SDS011;702;49.466;11.086;2023-02-15T07:39:09;25.80;;;14.90;;
1414;SDS011;702;49.466;11.086;2023-02-15T07:41:38;30.37;;;16.07;;
1414;SDS011;702;49.466;11.086;2023-02-15T07:44:10;24.40;;;14.10;;
1414;SDS011;702;49.466;11.086;2023-02-15T07:46:38;28.80;;;15.60;;
1414;SDS011;702;49.466;11.086;2023-02-15T07:49:06;26.80;;;15.33;;
1414;SDS011;702;49.466;11.086;2023-02-15T07:51:34;29.30;;;17.95;;
1414;SDS011;702;49.466;11.086;2023-02-15T07:54:01;32.23;;;17.27;;
1414;SDS011;702;49.466;11.086;2023-02-15T07:56:28;24.00;;;15.20;;
1414;SDS011;702;49.466;11.086;2023-02-15T07:58:57;25.13;;;15.20;;
1414;SDS011;702;49.466;11.086;2023-02-15T08:01:30;24.33;;;15.00;;
1414;SDS011;702;49.466;11.086;2023-02-15T08:03:58;24.00;;;15.27;;
1414;SDS011;702;49.466;11.086;2023-02-15T08:06:26;27.40;;;15.00;;
1414;SDS011;702;49.466;11.086;2023-02-15T08:08:55;26.57;;;14.73;;
1414;SDS011;702;49.466;11.086;2023-02-15T08:11:22;22.67;;;12.87;;
1414;SDS011;702;49.466;11.086;2023-02-15T08:14:00;27.20;;;15.80;;
1414;SDS011;702;49.466;11.086;2023-02-15T08:16:30;26.77;;;15.10;;
1414;SDS011;702;49.466;11.086;2023-02-15T08:19:01;24.00;;;14.50;;
1414;SDS011;702;49.466;11.086;2023-02-15T08:21:31;26.00;;;15.47;;
1414;SDS011;702;49.466;11.086;2023-02-15T08:24:00;23.50;;;14.30;;
1414;SDS011;702;49.466;11.086;2023-02-15T08:26:29;23.30;;;14.47;;
1414;SDS011;702;49.466;11.086;2023-02-15T08:28:57;27.13;;;15.60;;
1414;SDS011;702;49.466;11.086;2023-02-15T08:31:26;26.03;;;14.83;;
1414;SDS011;702;49.466;11.086;2023-02-15T08:33:55;23.50;;;14.53;;
1414;SDS011;702;49.466;11.086;2023-02-15T08:36:23;29.20;;;15.73;;
1414;SDS011;702;49.466;11.086;2023-02-15T08:38:54;19.17;;;12.77;;
1414;SDS011;702;49.466;11.086;2023-02-15T08:41:23;23.10;;;14.33;;
1414;SDS011;702;49.466;11.086;2023-02-15T08:43:53;25.40;;;13.13;;
1414;SDS011;702;49.466;11.086;2023-02-15T08:46:23;26.10;;;14.53;;
1414;SDS011;702;49.466;11.086;2023-02-15T08:48:52;31.57;;;14.83;;
1414;SDS011;702;49.466;11.086;2023-02-15T08:51:21;24.47;;;13.07;;
1414;SDS011;702;49.466;11.086;2023-02-15T08:53:51;23.83;;;13.30;;
1414;SDS011;702;49.466;11.086;2023-02-15T08:56:21;22.13;;;13.10;;
1414;SDS011;702;49.466;11.086;2023-02-15T08:58:52;20.83;;;12.10;;
1414;SDS011;702;49.466;11.086;2023-02-15T09:01:20;22.30;;;13.90;;
1414;SDS011;702;49.466;11.086;2023-02-15T09:03:51;22.70;;;13.90;;
1414;SDS011;702;49.466;11.086;2023-02-15T09:06:23;23.93;;;13.47;;
1414;SDS011;702;49.466;11.086;2023-02-15T09:08:51;19.73;;;12.17;;
1414;SDS011;702;49.466;11.086;2023-02-15T09:11:20;26.10;;;13.67;;
1414;SDS011;702;49.466;11.086;2023-02-15T09:13:49;20.97;;;12.97;;
1414;SDS011;702;49.466;11.086;2023-02-15T09:16:19;18.50;;;12.57;;
1414;SDS011;702;49.466;11.086;2023-02-15T09:18:49;21.30;;;12.17;;
1414;SDS011;702;49.466;11.086;2023-02-15T09:21:18;17.70;;;12.33;;
1414;SDS011;702;49.466;11.086;2023-02-15T09:23:48;18.07;;;12.00;;
1414;SDS011;702;49.466;11.086;2023-02-15T09:26:17;19.77;;;12.43;;
1414;SDS011;702;49.466;11.086;2023-02-15T09:28:47;18.27;;;11.50;;
1414;SDS011;702;49.466;11.086;2023-02-15T09:31:18;19.60;;;12.60;;
1414;SDS011;702;49.466;11.086;2023-02-15T09:33:49;19.70;;;11.50;;
1414;SDS011;702;49.466;11.086;2023-02-15T09:36:18;22.10;;;12.20;;
1414;SDS011;702;49.466;11.086;2023-02-15T09:38:50;16.00;;;11.80;;
1414;SDS011;702;49.466;11.086;2023-02-15T09:41:27;18.73;;;11.47;;
1414;SDS011;702;49.466;11.086;2023-02-15T09:44:22;18.97;;;12.07;;
1414;SDS011;702;49.466;11.086;2023-02-15T09:47:12;16.77;;;11.00;;
1414;SDS011;702;49.466;11.086;2023-02-15T09:50:11;17.93;;;11.63;;
1414;SDS011;702;49.466;11.086;2023-02-15T09:52:55;16.23;;;10.47;;
1414;SDS011;702;49.466;11.086;2023-02-15T09:55:54;18.43;;;10.90;;
1414;SDS011;702;49.466;11.086;2023-02-15T09:58:33;19.23;;;11.27;;
1414;SDS011;702;49.466;11.086;2023-02-15T10:01:15;18.13;;;11.53;;
1414;SDS011;702;49.466;11.086;2023-02-15T10:03:54;20.47;;;11.63;;
1414;SDS011;702;49.466;11.086;2023-02-15T10:06:41;20.13;;;11.90;;
1414;SDS011;702;49.466;11.086;2023-02-15T10:09:33;21.47;;;12.50;;
1414;SDS011;702;49.466;11.086;2023-02-15T10:12:26;19.57;;;12.70;;
1414;SDS011;702;49.466;11.086;2023-02-15T10:15:36;19.63;;;10.77;;
1414;SDS011;702;49.466;11.086;2023-02-15T10:18:29;16.30;;;10.80;;
1414;SDS011;702;49.466;11.086;2023-02-15T10:21:32;16.83;;;11.13;;
1414;SDS011;702;49.466;11.086;2023-02-15T10:24:14;15.47;;;9.60;;
1414;SDS011;702;49.466;11.086;2023-02-15T10:27:04;20.13;;;10.67;;
1414;SDS011;702;49.466;11.086;2023-02-15T10:29:39;29.50;;;12.00;;
1414;SDS011;702;49.466;11.086;2023-02-15T10:32:16;16.77;;;11.00;;
1414;SDS011;702;49.466;11.086;2023-02-15T10:34:51;19.47;;;10.80;;
1414;SDS011;702;49.466;11.086;2023-02-15T10:37:35;14.57;;;10.97;;
1414;SDS011;702;49.466;11.086;2023-02-15T10:40:29;16.20;;;10.83;;
1414;SDS011;702;49.466;11.086;2023-02-15T10:43:06;18.30;;;11.77;;
1414;SDS011;702;49.466;11.086;2023-02-15T10:45:56;17.57;;;11.40;;
1414;SDS011;702;49.466;11.086;2023-02-15T10:48:45;17.73;;;10.57;;
1414;SDS011;702;49.466;11.086;2023-02-15T10:51:28;15.50;;;10.40;;
1414;SDS011;702;49.466;11.086;2023-02-15T10:54:12;14.77;;;10.43;;
1414;SDS011;702;49.466;11.086;2023-02-15T10:56:53;13.73;;;9.73;;
1414;SDS011;702;49.466;11.086;2023-02-15T10:59:33;15.93;;;11.77;;
1414;SDS011;702;49.466;11.086;2023-02-15T11:02:28;16.73;;;10.37;;
1414;SDS011;702;49.466;11.086;2023-02-15T11:05:16;16.00;;;10.63;;
1414;SDS011;702;49.466;11.086;2023-02-15T11:07:52;17.00;;;11.40;;
1414;SDS011;702;49.466;11.086;2023-02-15T11:10:26;16.93;;;9.77;;
1414;SDS011;702;49.466;11.086;2023-02-15T11:12:57;14.90;;;9.60;;
1414;SDS011;702;49.466;11.086;2023-02-15T11:15:31;14.70;;;10.27;;
1414;SDS011;702;49.466;11.086;2023-02-15T11:18:04;13.40;;;10.40;;
1414;SDS011;702;49.466;11.086;2023-02-15T11:20:38;16.13;;;10.53;;
1414;SDS011;702;49.466;11.086;2023-02-15T11:23:13;18.20;;;11.70;;
1414;SDS011;702;49.466;11.086;2023-02-15T11:25:46;16.30;;;9.93;;
1414;SDS011;702;49.466;11.086;2023-02-15T11:28:22;20.20;;;10.60;;
1414;SDS011;702;49.466;11.086;2023-02-15T11:30:56;15.83;;;10.63;;
1414;SDS011;702;49.466;11.086;2023-02-15T11:33:29;16.13;;;10.20;;
1414;SDS011;702;49.466;11.086;2023-02-15T11:36:03;14.80;;;10.10;;
1414;SDS011;702;49.466;11.086;2023-02-15T11:38:35;15.63;;;11.13;;
1414;SDS011;702;49.466;11.086;2023-02-15T11:41:07;19.07;;;11.67;;
1414;SDS011;702;49.466;11.086;2023-02-15T11:43:37;20.23;;;11.30;;
1414;SDS011;702;49.466;11.086;2023-02-15T11:46:10;14.40;;;10.97;;
1414;SDS011;702;49.466;11.086;2023-02-15T11:48:39;21.57;;;11.23;;
1414;SDS011;702;49.466;11.086;2023-02-15T11:51:08;13.63;;;11.10;;
1414;SDS011;702;49.466;11.086;2023-02-15T11:53:41;17.73;;;10.57;;
1414;SDS011;702;49.466;11.086;2023-02-15T11:56:13;18.20;;;12.60;;
1414;SDS011;702;49.466;11.086;2023-02-15T11:58:43;23.43;;;11.60;;
1414;SDS011;702;49.466;11.086;2023-02-15T12:01:16;15.67;;;12.10;;
1414;SDS011;702;49.466;11.086;2023-02-15T12:03:51;16.03;;;10.77;;
1414;SDS011;702;49.466;11.086;2023-02-15T12:06:23;17.20;;;12.60;;
1414;SDS011;702;49.466;11.086;2023-02-15T12:08:59;16.20;;;12.23;;
1414;SDS011;702;49.466;11.086;2023-02-15T12:11:35;22.23;;;13.20;;
1414;SDS011;702;49.466;11.086;2023-02-15T12:14:05;16.40;;;12.40;;
1414;SDS011;702;49.466;11.086;2023-02-15T12:16:40;18.80;;;11.40;;
1414;SDS011;702;49.466;11.086;2023-02-15T12:19:13;15.83;;;12.10;;
1414;SDS011;702;49.466;11.086;2023-02-15T12:21:57;15.93;;;11.80;;
1414;SDS011;702;49.466;11.086;2023-02-15T12:24:27;14.87;;;11.73;;
1414;SDS011;702;49.466;11.086;2023-02-15T12:26:58;16.90;;;12.17;;
1414;SDS011;702;49.466;11.086;2023-02-15T12:29:30;18.50;;;13.87;;
1414;SDS011;702;49.466;11.086;2023-02-15T12:32:05;17.77;;;12.30;;
1414;SDS011;702;49.466;11.086;2023-02-15T12:34:37;18.90;;;12.67;;
1414;SDS011;702;49.466;11.086;2023-02-15T12:37:11;20.03;;;12.20;;
1414;SDS011;702;49.466;11.086;2023-02-15T12:39:51;19.53;;;12.10;;
1414;SDS011;702;49.466;11.086;2023-02-15T12:42:22;16.60;;;11.70;;
1414;SDS011;702;49.466;11.086;2023-02-15T12:44:58;17.50;;;12.93;;
1414;SDS011;702;49.466;11.086;2023-02-15T12:47:27;17.43;;;12.97;;
1414;SDS011;702;49.466;11.086;2023-02-15T12:50:04;29.43;;;14.10;;
1414;SDS011;702;49.466;11.086;2023-02-15T12:52:41;19.47;;;12.50;;
1414;SDS011;702;49.466;11.086;2023-02-15T12:55:11;19.03;;;12.80;;
1414;SDS011;702;49.466;11.086;2023-02-15T12:58:06;17.93;;;13.30;;
1414;SDS011;702;49.466;11.086;2023-02-15T13:00:35;21.60;;;13.60;;
1414;SDS011;702;49.466;11.086;2023-02-15T13:03:02;20.30;;;13.37;;
1414;SDS011;702;49.466;11.086;2023-02-15T13:05:34;18.67;;;13.63;;
1414;SDS011;702;49.466;11.086;2023-02-15T13:08:09;24.63;;;14.60;;
1414;SDS011;702;49.466;11.086;2023-02-15T13:10:39;19.10;;;13.83;;
1414;SDS011;702;49.466;11.086;2023-02-15T13:13:19;21.13;;;14.23;;
1414;SDS011;702;49.466;11.086;2023-02-15T13:15:52;28.53;;;15.60;;
1414;SDS011;702;49.466;11.086;2023-02-15T13:18:24;22.77;;;15.07;;
1414;SDS011;702;49.466;11.086;2023-02-15T13:20:58;21.00;;;15.23;;
1414;SDS011;702;49.466;11.086;2023-02-15T13:23:36;28.60;;;16.10;;
1414;SDS011;702;49.466;11.086;2023-02-15T13:26:08;18.97;;;15.90;;
1414;SDS011;702;49.466;11.086;2023-02-15T13:28:46;22.90;;;15.70;;
1414;SDS011;702;49.466;11.086;2023-02-15T13:31:17;28.27;;;17.90;;
1414;SDS011;702;49.466;11.086;2023-02-15T13:33:46;23.20;;;16.87;;
1414;SDS011;702;49.466;11.086;2023-02-15T13:36:20;25.48;;;18.42;;
1414;SDS011;702;49.466;11.086;2023-02-15T13:39:01;25.27;;;17.97;;
1414;SDS011;702;49.466;11.086;2023-02-15T13:41:41;26.57;;;17.30;;
1414;SDS011;702;49.466;11.086;2023-02-15T13:44:21;27.07;;;19.07;;
1414;SDS011;702;49.466;11.086;2023-02-15T13:47:24;24.30;;;17.13;;
1414;SDS011;702;49.466;11.086;2023-02-15T13:50:10;25.17;;;17.40;;
1414;SDS011;702;49.466;11.086;2023-02-15T13:52:58;28.53;;;18.40;;
1414;SDS011;702;49.466;11.086;2023-02-15T13:55:46;33.70;;;20.47;;
1414;SDS011;702;49.466;11.086;2023-02-15T14:01:39;29.43;;;20.10;;
1414;SDS011;702;49.466;11.086;2023-02-15T14:04:17;26.30;;;18.80;;
1414;SDS011;702;49.466;11.086;2023-02-15T14:07:02;28.57;;;18.97;;
1414;SDS011;702;49.466;11.086;2023-02-15T14:10:02;26.73;;;19.37;;
1414;SDS011;702;49.466;11.086;2023-02-15T14:16:13;27.20;;;19.10;;
1414;SDS011;702;49.466;11.086;2023-02-15T14:18:51;28.80;;;21.03;;
1414;SDS011;702;49.466;11.086;2023-02-15T14:21:26;29.60;;;20.70;;
1414;SDS011;702;49.466;11.086;2023-02-15T14:24:02;25.30;;;20.03;;
1414;SDS011;702;49.466;11.086;2023-02-15T14:26:47;34.00;;;21.70;;
1414;SDS011;702;49.466;11.086;2023-02-15T14:29:25;30.57;;;19.80;;
1414;SDS011;702;49.466;11.086;2023-02-15T14:32:08;28.80;;;19.43;;
1414;SDS011;702;49.466;11.086;2023-02-15T14:34:44;34.47;;;21.70;;
1414;SDS011;702;49.466;11.086;2023-02-15T14:37:18;30.23;;;20.87;;
1414;SDS011;702;49.466;11.086;2023-02-15T14:39:51;32.50;;;21.43;;
1414;SDS011;702;49.466;11.086;2023-02-15T14:42:44;30.73;;;23.30;;
1414;SDS011;702;49.466;11.086;2023-02-15T14:45:20;31.47;;;23.30;;
1414;SDS011;702;49.466;11.086;2023-02-15T14:47:55;30.90;;;21.93;;
1414;SDS011;702;49.466;11.086;2023-02-15T14:50:43;30.43;;;22.50;;
1414;SDS011;702;49.466;11.086;2023-02-15T14:56:23;33.20;;;21.90;;
1414;SDS011;702;49.466;11.086;2023-02-15T14:59:12;35.20;;;23.00;;
1414;SDS011;702;49.466;11.086;2023-02-15T15:01:52;36.10;;;23.33;;
1414;SDS011;702;49.466;11.086;2023-02-15T15:04:25;35.60;;;24.57;;
1414;SDS011;702;49.466;11.086;2023-02-15T15:07:00;28.47;;;21.23;;
1414;SDS011;702;49.466;11.086;2023-02-15T15:09:39;32.87;;;22.13;;
1414;SDS011;702;49.466;11.086;2023-02-15T15:12:26;31.70;;;23.00;;
1414;SDS011;702;49.466;11.086;2023-02-15T15:15:05;35.83;;;23.87;;
1414;SDS011;702;49.466;11.086;2023-02-15T15:17:57;31.90;;;21.60;;
1414;SDS011;702;49.466;11.086;2023-02-15T15:20:43;33.53;;;22.30;;
1414;SDS011;702;49.466;11.086;2023-02-15T15:26:23;33.93;;;22.73;;
1414;SDS011;702;49.466;11.086;2023-02-15T15:28:53;37.37;;;24.23;;
1414;SDS011;702;49.466;11.086;2023-02-15T15:31:24;33.07;;;23.20;;
1414;SDS011;702;49.466;11.086;2023-02-15T15:37:41;36.30;;;22.73;;
1414;SDS011;702;49.466;11.086;2023-02-15T15:40:42;35.43;;;22.53;;
1414;SDS011;702;49.466;11.086;2023-02-15T15:47:12;35.20;;;23.30;;
1414;SDS011;702;49.466;11.086;2023-02-15T15:49:54;30.53;;;22.63;;
1414;SDS011;702;49.466;11.086;2023-02-15T15:52:23;38.33;;;24.10;;
1414;SDS011;702;49.466;11.086;2023-02-15T15:54:53;42.37;;;28.40;;
1414;SDS011;702;49.466;11.086;2023-02-15T15:57:26;33.73;;;23.40;;